createdAt,value
2022-12-25T00:04:08.943Z,101743.56
2022-12-25T00:09:15.510Z,101754.53
2022-12-25T00:14:17.038Z,101751.66
2022-12-25T00:19:18.593Z,101742.66
2022-12-25T00:24:20.107Z,101734.78
2022-12-25T00:29:24.863Z,101734.44
2022-12-25T00:34:27.338Z,101725.22
2022-12-25T00:39:28.991Z,101708.97
2022-12-25T00:44:30.582Z,101706.69
2022-12-25T00:49:32.265Z,101719.53
2022-12-25T00:54:34.170Z,101699.44
2022-12-25T00:59:35.923Z,101698.53
2022-12-25T01:04:37.627Z,101694.72
2022-12-25T01:09:58.527Z,101701.09
2022-12-25T01:15:00.178Z,101699.56
2022-12-25T01:20:02.206Z,101687.97
2022-12-25T01:25:05.585Z,101704.84
2022-12-25T01:30:09.803Z,101707.50
2022-12-25T01:35:12.165Z,101722.69
2022-12-25T01:40:14.740Z,101728.78
2022-12-25T01:45:43.654Z,101751.19
2022-12-25T01:50:51.568Z,101740.41
2022-12-25T01:56:00.034Z,101737.38
2022-12-25T02:01:02.296Z,101742.59
2022-12-25T02:06:04.529Z,101740.97
2022-12-25T02:11:06.312Z,101734.66
2022-12-25T02:16:17.688Z,101731.84
2022-12-25T02:21:58.042Z,101737.88
2022-12-25T02:27:34.934Z,101740.53
2022-12-25T02:33:20.239Z,101743.22
2022-12-25T02:39:04.794Z,101745.22
2022-12-25T02:44:32.317Z,101766.94
2022-12-25T02:49:53.854Z,101763.72
2022-12-25T02:55:20.482Z,101767.09
2022-12-25T03:00:41.333Z,101760.13
2022-12-25T03:06:04.105Z,101761.88
2022-12-25T03:11:30.833Z,101746.63
2022-12-25T03:16:50.633Z,101728.38
2022-12-25T03:22:13.410Z,101717.97
2022-12-25T03:27:18.326Z,101708.56
2022-12-25T03:33:23.356Z,101682.69
2022-12-25T03:38:51.661Z,101662.34
2022-12-25T03:44:26.375Z,101637.50
2022-12-25T03:49:57.774Z,101652.72
2022-12-25T03:55:23.065Z,101646.88
2022-12-25T04:00:43.162Z,101644.09
2022-12-25T04:06:05.893Z,101655.97
2022-12-25T04:11:26.084Z,101668.81
2022-12-25T04:16:46.345Z,101670.16
2022-12-25T04:22:06.659Z,101656.44
2022-12-25T04:27:26.916Z,101671.22
2022-12-25T04:32:47.148Z,101663.72
2022-12-25T04:37:48.870Z,101658.28
2022-12-25T04:42:51.480Z,101671.81
2022-12-25T04:47:53.286Z,101676.38
2022-12-25T04:52:54.961Z,101684.09
2022-12-25T04:57:56.509Z,101677.13
2022-12-25T05:02:59.062Z,101682.06
2022-12-25T05:08:01.021Z,101671.47
2022-12-25T05:13:02.679Z,101663.97
2022-12-25T05:18:04.517Z,101652.88
2022-12-25T05:23:06.141Z,101637.31
2022-12-25T05:28:08.088Z,101637.06
2022-12-25T05:33:09.721Z,101620.41
2022-12-25T05:38:11.365Z,101620.28
2022-12-25T05:43:12.987Z,101611.53
2022-12-25T05:48:18.010Z,101609.16
2022-12-25T05:53:21.604Z,101592.16
2022-12-25T05:58:23.203Z,101608.19
2022-12-25T06:03:25.057Z,101604.97
2022-12-25T06:08:26.780Z,101601.50
2022-12-25T06:13:28.441Z,101598.50
2022-12-25T06:18:39.175Z,101584.25
2022-12-25T06:23:41.649Z,101584.00
2022-12-25T06:28:44.353Z,101575.44
2022-12-25T06:33:46.609Z,101556.84
2022-12-25T06:38:48.636Z,101541.69
2022-12-25T06:43:52.248Z,101522.03
2022-12-25T06:48:54.396Z,101529.81
2022-12-25T06:53:56.126Z,101543.06
2022-12-25T06:59:04.286Z,101538.06
2022-12-25T07:04:11.474Z,101536.44
2022-12-25T07:09:13.195Z,101527.63
2022-12-25T07:14:24.308Z,101533.94
2022-12-25T07:19:26.142Z,101511.66
2022-12-25T07:24:27.868Z,101486.94
2022-12-25T07:29:29.498Z,101479.25
2022-12-25T07:34:31.190Z,101481.78
2022-12-25T07:39:34.168Z,101490.59
2022-12-25T07:44:35.792Z,101500.13
2022-12-25T07:49:37.435Z,101520.00
2022-12-25T07:54:39.159Z,101505.25
2022-12-25T07:59:43.181Z,101492.50
2022-12-25T08:04:44.883Z,101522.47
2022-12-25T08:09:46.536Z,101492.94
2022-12-25T08:14:49.115Z,101460.81
2022-12-25T08:19:52.639Z,101482.66
2022-12-25T08:24:54.189Z,101501.47
2022-12-25T08:29:55.890Z,101512.38
2022-12-25T08:34:57.515Z,101542.03
2022-12-25T08:39:59.133Z,101523.59
2022-12-25T08:45:00.857Z,101502.22
2022-12-25T08:50:02.421Z,101491.78
2022-12-25T08:55:04.983Z,101480.22
2022-12-25T09:00:07.161Z,101473.19
2022-12-25T09:05:09.293Z,101448.03
2022-12-25T09:10:11.295Z,101447.13
2022-12-25T09:15:13.084Z,101456.72
2022-12-25T09:20:14.789Z,101469.53
2022-12-25T09:25:16.500Z,101469.00
2022-12-25T09:30:18.173Z,101462.00
2022-12-25T09:35:19.784Z,101473.66
2022-12-25T09:40:25.851Z,101464.63
2022-12-25T09:45:34.120Z,101450.59
2022-12-25T09:50:43.831Z,101480.44
2022-12-25T09:56:11.588Z,101494.84
2022-12-25T10:01:19.749Z,101526.78
2022-12-25T10:06:51.997Z,101513.91
2022-12-25T10:12:24.102Z,101506.25
2022-12-25T10:17:58.329Z,101478.31
2022-12-25T10:23:02.164Z,101495.44
2022-12-25T10:28:11.883Z,101485.66
2022-12-25T10:33:17.164Z,101492.59
2022-12-25T10:38:20.009Z,101504.25
2022-12-25T10:43:28.083Z,101516.38
2022-12-25T10:48:33.088Z,101506.47
2022-12-25T10:53:42.664Z,101496.88
2022-12-25T10:58:44.854Z,101490.28
2022-12-25T11:03:58.065Z,101491.91
2022-12-25T11:09:03.621Z,101474.50
2022-12-25T11:14:05.549Z,101472.28
2022-12-25T11:19:29.516Z,101454.72
2022-12-25T11:24:33.123Z,101461.00
2022-12-25T11:29:45.304Z,101475.47
2022-12-25T11:34:48.894Z,101481.19
2022-12-25T11:39:50.771Z,101454.00
2022-12-25T11:44:57.638Z,101443.69
2022-12-25T11:50:14.224Z,101440.28
2022-12-25T11:55:40.846Z,101405.75
2022-12-25T12:00:46.377Z,101406.56
2022-12-25T12:06:03.133Z,101394.94
2022-12-25T12:11:21.198Z,101378.28
2022-12-25T12:16:25.324Z,101381.03
2022-12-25T12:21:31.157Z,101375.75
2022-12-25T12:26:38.009Z,101368.66
2022-12-25T12:31:47.285Z,101359.59
2022-12-25T12:36:51.373Z,101353.09
2022-12-25T12:41:53.653Z,101360.81
2022-12-25T12:46:57.617Z,101355.72
2022-12-25T12:52:30.439Z,101362.28
2022-12-25T12:57:39.278Z,101369.09
2022-12-25T13:03:19.836Z,101356.72
2022-12-25T13:08:30.761Z,101346.50
2022-12-25T13:13:44.591Z,101330.31
2022-12-25T13:18:46.298Z,101332.28
2022-12-25T13:23:48.098Z,101317.34
2022-12-25T13:28:49.684Z,101324.06
2022-12-25T13:34:00.870Z,101318.47
2022-12-25T13:39:03.258Z,101320.84
2022-12-25T13:44:21.566Z,101323.81
2022-12-25T13:49:24.371Z,101319.56
2022-12-25T13:54:26.863Z,101323.63
2022-12-25T13:59:28.471Z,101318.19
2022-12-25T14:04:30.046Z,101310.97
2022-12-25T14:09:32.557Z,101296.81
2022-12-25T14:14:35.818Z,101293.78
2022-12-25T14:19:37.501Z,101276.69
2022-12-25T14:24:40.572Z,101268.03
2022-12-25T14:29:44.922Z,101271.19
2022-12-25T14:34:48.715Z,101259.06
2022-12-25T14:39:58.555Z,101260.50
2022-12-25T14:45:05.588Z,101251.25
2022-12-25T14:50:15.819Z,101254.00
2022-12-25T14:55:25.686Z,101264.22
2022-12-25T15:00:32.074Z,101264.75
2022-12-25T15:05:38.946Z,101271.81
2022-12-25T15:11:00.261Z,101254.13
2022-12-25T15:16:13.010Z,101251.38
2022-12-25T15:21:22.771Z,101259.19
2022-12-25T15:26:25.818Z,101261.22
2022-12-25T15:31:32.542Z,101251.78
2022-12-25T15:36:34.308Z,101239.25
2022-12-25T15:41:56.097Z,101218.66
2022-12-25T15:47:00.253Z,101212.78
2022-12-25T15:52:03.771Z,101220.34
2022-12-25T15:57:10.241Z,101200.69
2022-12-25T16:02:20.505Z,101191.34
2022-12-25T16:07:23.979Z,101189.38
2022-12-25T16:12:26.053Z,101188.47
2022-12-25T16:17:27.764Z,101206.56
2022-12-25T16:22:31.683Z,101208.09
2022-12-25T16:27:33.291Z,101208.06
2022-12-25T16:32:35.047Z,101213.03
2022-12-25T16:37:36.703Z,101225.38
2022-12-25T16:42:38.485Z,101223.13
2022-12-25T16:47:40.071Z,101218.25
2022-12-25T16:52:41.678Z,101194.13
2022-12-25T16:57:43.315Z,101181.59
2022-12-25T17:02:45.091Z,101166.25
2022-12-25T17:07:47.114Z,101165.75
2022-12-25T17:12:48.881Z,101170.41
2022-12-25T17:17:50.471Z,101164.13
2022-12-25T17:22:52.196Z,101170.03
2022-12-25T17:27:53.783Z,101158.25
2022-12-25T17:32:55.339Z,101160.22
2022-12-25T17:37:56.879Z,101158.50
2022-12-25T17:42:58.540Z,101152.44
2022-12-25T17:48:00.133Z,101154.81
2022-12-25T17:53:02.676Z,101155.06
2022-12-25T17:58:04.943Z,101149.09
2022-12-25T18:03:11.472Z,101140.56
2022-12-25T18:08:15.300Z,101130.97
2022-12-25T18:13:17.029Z,101142.00
2022-12-25T18:18:18.720Z,101154.63
2022-12-25T18:23:21.347Z,101167.00
2022-12-25T18:28:23.365Z,101148.44
2022-12-25T18:33:25.688Z,101148.13
2022-12-25T18:38:27.776Z,101156.84
2022-12-25T18:43:51.608Z,101142.81
2022-12-25T18:48:51.471Z,101136.66
2022-12-25T18:53:56.852Z,101148.56
2022-12-25T18:59:01.885Z,101154.25
2022-12-25T19:04:05.561Z,101153.66
2022-12-25T19:09:12.161Z,101166.28
2022-12-25T19:14:14.189Z,101157.81
2022-12-25T19:19:16.262Z,101159.16
2022-12-25T19:24:17.827Z,101177.25
2022-12-25T19:29:20.493Z,101170.09
2022-12-25T19:34:22.149Z,101168.38
2022-12-25T19:39:23.859Z,101162.16
2022-12-25T19:44:25.657Z,101156.72
2022-12-25T19:49:27.459Z,101141.00
2022-12-25T19:54:29.588Z,101133.28
2022-12-25T19:59:31.233Z,101134.53
2022-12-25T20:04:33.019Z,101178.97
2022-12-25T20:09:34.819Z,101189.47
2022-12-25T20:14:36.388Z,101171.41
2022-12-25T20:19:38.051Z,101164.19
2022-12-25T20:24:39.703Z,101167.47
2022-12-25T20:29:41.327Z,101194.81
2022-12-25T20:34:43.218Z,101201.66
2022-12-25T20:39:44.951Z,101216.13
2022-12-25T20:44:46.524Z,101200.63
2022-12-25T20:49:52.446Z,101185.34
2022-12-25T20:54:54.185Z,101198.50
2022-12-25T20:59:55.968Z,101227.47
2022-12-25T21:04:57.685Z,101220.03
2022-12-25T21:09:59.718Z,101202.53
2022-12-25T21:15:01.393Z,101219.41
2022-12-25T21:20:03.505Z,101208.53
2022-12-25T21:25:05.651Z,101213.47
2022-12-25T21:30:15.473Z,101216.56
2022-12-25T21:35:17.465Z,101212.56
2022-12-25T21:40:19.156Z,101215.41
2022-12-25T21:45:20.772Z,101240.44
2022-12-25T21:50:40.957Z,101254.03
2022-12-25T21:55:42.676Z,101255.56
2022-12-25T22:00:44.288Z,101276.78
2022-12-25T22:06:07.032Z,101285.91
2022-12-25T22:11:32.088Z,101300.03
2022-12-25T22:16:52.502Z,101285.31
2022-12-25T22:21:54.018Z,101293.47
2022-12-25T22:26:55.534Z,101285.38
2022-12-25T22:31:59.262Z,101301.63
2022-12-25T22:37:02.343Z,101299.00
2022-12-25T22:42:04.066Z,101320.88
2022-12-25T22:47:05.782Z,101325.06
2022-12-25T22:52:09.737Z,101322.00
2022-12-25T22:57:11.443Z,101326.81
2022-12-25T23:02:13.273Z,101318.13
2022-12-25T23:07:15.700Z,101314.47
2022-12-25T23:12:36.003Z,101312.75
2022-12-25T23:17:56.319Z,101312.41
2022-12-25T23:23:19.388Z,101334.31
2022-12-25T23:28:44.103Z,101307.75
2022-12-25T23:33:47.993Z,101287.78
2022-12-25T23:38:49.697Z,101308.88
2022-12-25T23:43:51.242Z,101285.94
2022-12-25T23:48:52.829Z,101297.22
2022-12-25T23:53:54.451Z,101301.59
2022-12-25T23:58:56.068Z,101317.00
